createdAt,value
2023-01-06T00:21:53.000Z,980.4
2023-01-06T00:51:59.000Z,980.1
2023-01-06T01:22:04.000Z,979.9
2023-01-06T01:52:14.000Z,979.8
2023-01-06T02:22:15.427Z,979.8
2023-01-06T02:52:17.000Z,979.5
2023-01-06T03:22:25.000Z,979.5
2023-01-06T03:52:26.000Z,979.6
2023-01-06T04:22:33.338Z,979.7
2023-01-06T04:52:36.000Z,979.5
2023-01-06T05:22:39.000Z,979.4
2023-01-06T05:52:48.000Z,979.3
2023-01-06T06:22:51.134Z,979.2
2023-01-06T06:52:54.000Z,979.5
2023-01-06T07:22:58.075Z,979.8
2023-01-06T07:53:02.000Z,979.9
2023-01-06T08:23:07.000Z,980.1
2023-01-06T08:53:12.000Z,980.2
2023-01-06T09:23:23.085Z,980.7
2023-01-06T09:53:33.144Z,980.9
2023-01-06T10:23:38.110Z,980.5
2023-01-06T10:53:39.969Z,980.1
2023-01-06T11:23:42.106Z,979.6
2023-01-06T11:53:46.007Z,979.7
2023-01-06T12:23:54.126Z,979.5
2023-01-06T12:53:57.137Z,979.2
2023-01-06T13:23:59.046Z,979.1
2023-01-06T13:54:08.119Z,979.1
2023-01-06T14:24:13.977Z,979.1
2023-01-06T14:54:23.066Z,979.1
2023-01-06T15:24:31.053Z,979.2
2023-01-06T15:54:40.988Z,979.3
2023-01-06T16:24:42.930Z,979.5
2023-01-06T16:54:49.970Z,979.6
2023-01-06T17:24:51.003Z,979.6
2023-01-06T17:54:55.870Z,979.8
2023-01-06T18:25:01.787Z,979.8
2023-01-06T18:55:12.780Z,979.9
2023-01-06T19:25:15.747Z,979.9
2023-01-06T19:55:21.764Z,979.8
2023-01-06T20:25:24.702Z,979.8
2023-01-06T20:55:25.863Z,979.7
2023-01-06T21:25:27.000Z,979.4
2023-01-06T21:55:36.755Z,979.5
2023-01-06T22:25:39.692Z,979.3
2023-01-06T22:55:41.669Z,979.3
2023-01-06T23:25:48.844Z,979.1
2023-01-06T23:55:49.596Z,978.9
